Ytteroyane Fyr, Norway

10:12 PM CEST on September 30, 2014 (GMT +0200)
Floro | Change Station
CLOSE
Current Station
Airport
Location: Floro,
Elevation: 30 ft
Nearby Weather Stations

Elev 30 ft 61.58 °N, 5.02 °E | Updated 22 minutes ago

Mostly Cloudy
Mostly Cloudy
57 °F
Feels Like 57 °F
N
14
Wind Variable Wind from SSE

Today
High -- | Low -- °F
--% Chance of Precip.
Yesterday
High -- | Low -- °F
Precip. -- in
7:44 AM 7:16 PM
Waxing Crescent, 39% visible
Pressure 30.15 in
Visibility 6.2 miles
Clouds Few 2000 ft
Mostly Cloudy 3500 ft
Dew Point 50 °F
Humidity 77%
Rainfall 0.00 in
Snow Depth Not available.
UV 0 out of 12
Pollen Not available.
Air Quality Not available.
Flu Activity Not available.
METAR ENFL 301950Z 16012KT 9999 VCSH FEW020 BKN035 14/10 Q1021

More Conditions Fewer Conditions

Pressure 30.15 in
Visibility 6.2 miles
Clouds Few 2000 ft
Mostly Cloudy 3500 ft
Dew Point 50 °F
Humidity 77%
Rainfall 0.00 in
Snow Depth Not available.
UV 0 out of 12
Pollen Not available.
Air Quality Not available.
Flu Activity Not available.
METAR ENFL 301950Z 16012KT 9999 VCSH FEW020 BKN035 14/10 Q1021

More Conditions Fewer Conditions

10-Day Weather Forecast

Almanac

Astronomy

Sep. 30, 2014 Rise Set
Actual Time 7:44 AM CEST 7:16 PM CEST
Civil Twilight 7:01 AM CEST 7:59 PM CEST
Nautical Twilight 6:09 AM CEST 8:50 PM CEST
Astronomical Twilight 5:14 AM CEST 9:45 PM CEST
Moon 3:01 PM CEST 10:08 PM CEST
Length of Visible Light 12h 58m
Length of Day
11h 31m
Tomorrow will be 5m 45s shorter.
Waxing Crescent, 39% of the Moon is Illuminated
Today
Waxing Crescent
Oct 1
First Quarter
Oct 8
Full
Oct 15
Last Quarter
Oct 23
New

Today's Extremes

Country Highs Country Lows

Community

WunderPhotos

Upload Photos

1,757,738 photos uploaded!

Nearby

Snow Depth

Not available.

Earthquake Activity

City Distance Mag. Time & Date
No recent earthquake activity has been reported nearby.
Minimum magnitude displayed is 2.5.

Coastal Water Temperatures

Place Temperature
No Stations Reporting

Nearby Weather Stations